sensor_id;sensor_type;location;lat;lon;timestamp;pressure;altitude;pressure_sealevel;temperature
48894;BMP280;34710;35.798;139.446;2022-12-24T00:02:10;98772.35;;;9.57
48894;BMP280;34710;35.798;139.446;2022-12-24T00:04:40;98776.65;;;10.82
48894;BMP280;34710;35.798;139.446;2022-12-24T00:07:09;98775.66;;;11.36
48894;BMP280;34710;35.798;139.446;2022-12-24T00:09:39;98786.93;;;11.77
48894;BMP280;34710;35.798;139.446;2022-12-24T00:12:09;98791.28;;;12.22
48894;BMP280;34710;35.798;139.446;2022-12-24T00:14:38;98788.34;;;12.70
48894;BMP280;34710;35.798;139.446;2022-12-24T00:17:07;98788.59;;;13.02
48894;BMP280;34710;35.798;139.446;2022-12-24T00:19:37;98790.39;;;13.71
48894;BMP280;34710;35.798;139.446;2022-12-24T00:22:06;98791.16;;;13.09
48894;BMP280;34710;35.798;139.446;2022-12-24T00:24:36;98792.56;;;10.94
48894;BMP280;34710;35.798;139.446;2022-12-24T00:27:06;98795.51;;;13.32
48894;BMP280;34710;35.798;139.446;2022-12-24T00:29:35;98787.14;;;13.01
48894;BMP280;34710;35.798;139.446;2022-12-24T00:32:04;98790.89;;;12.53
48894;BMP280;34710;35.798;139.446;2022-12-24T00:34:33;98795.61;;;11.85
48894;BMP280;34710;35.798;139.446;2022-12-24T00:37:02;98796.99;;;12.86
48894;BMP280;34710;35.798;139.446;2022-12-24T00:39:32;98809.18;;;15.05
48894;BMP280;34710;35.798;139.446;2022-12-24T00:42:01;98807.61;;;16.96
48894;BMP280;34710;35.798;139.446;2022-12-24T00:44:31;98802.72;;;17.49
48894;BMP280;34710;35.798;139.446;2022-12-24T00:47:00;98802.91;;;17.63
48894;BMP280;34710;35.798;139.446;2022-12-24T00:49:30;98814.27;;;16.23
48894;BMP280;34710;35.798;139.446;2022-12-24T00:52:00;98813.94;;;16.64
48894;BMP280;34710;35.798;139.446;2022-12-24T00:54:29;98810.02;;;16.83
48894;BMP280;34710;35.798;139.446;2022-12-24T00:56:58;98800.41;;;18.46
48894;BMP280;34710;35.798;139.446;2022-12-24T00:59:28;98805.64;;;19.63
48894;BMP280;34710;35.798;139.446;2022-12-24T01:01:57;98803.52;;;20.97
48894;BMP280;34710;35.798;139.446;2022-12-24T01:04:26;98816.89;;;20.40
48894;BMP280;34710;35.798;139.446;2022-12-24T01:06:56;98811.55;;;21.93
48894;BMP280;34710;35.798;139.446;2022-12-24T01:09:24;98804.54;;;22.70
48894;BMP280;34710;35.798;139.446;2022-12-24T01:11:54;98811.19;;;23.30
48894;BMP280;34710;35.798;139.446;2022-12-24T01:14:23;98813.71;;;23.92
48894;BMP280;34710;35.798;139.446;2022-12-24T01:16:53;98820.29;;;24.32
48894;BMP280;34710;35.798;139.446;2022-12-24T01:19:22;98820.98;;;24.88
48894;BMP280;34710;35.798;139.446;2022-12-24T01:21:52;98812.10;;;25.33
48894;BMP280;34710;35.798;139.446;2022-12-24T01:24:21;98818.94;;;25.43
48894;BMP280;34710;35.798;139.446;2022-12-24T01:26:51;98810.65;;;25.46
48894;BMP280;34710;35.798;139.446;2022-12-24T01:29:20;98816.43;;;25.35
48894;BMP280;34710;35.798;139.446;2022-12-24T01:31:50;98820.56;;;25.73
48894;BMP280;34710;35.798;139.446;2022-12-24T01:34:19;98831.93;;;25.60
48894;BMP280;34710;35.798;139.446;2022-12-24T01:36:49;98822.42;;;25.88
48894;BMP280;34710;35.798;139.446;2022-12-24T01:39:18;98824.01;;;26.33
48894;BMP280;34710;35.798;139.446;2022-12-24T01:41:47;98813.19;;;25.90
48894;BMP280;34710;35.798;139.446;2022-12-24T01:44:19;98805.65;;;26.03
48894;BMP280;34710;35.798;139.446;2022-12-24T01:46:50;98797.80;;;26.60
48894;BMP280;34710;35.798;139.446;2022-12-24T01:49:20;98803.09;;;26.52
48894;BMP280;34710;35.798;139.446;2022-12-24T01:51:53;98801.29;;;26.43
48894;BMP280;34710;35.798;139.446;2022-12-24T01:54:28;98808.97;;;25.82
48894;BMP280;34710;35.798;139.446;2022-12-24T01:57:01;98807.90;;;26.48
48894;BMP280;34710;35.798;139.446;2022-12-24T01:59:30;98804.16;;;26.46
48894;BMP280;34710;35.798;139.446;2022-12-24T02:02:01;98799.19;;;26.94
48894;BMP280;34710;35.798;139.446;2022-12-24T02:04:35;98797.82;;;26.27
48894;BMP280;34710;35.798;139.446;2022-12-24T02:07:05;98792.91;;;26.33
48894;BMP280;34710;35.798;139.446;2022-12-24T02:09:36;98792.46;;;26.05
48894;BMP280;34710;35.798;139.446;2022-12-24T02:12:07;98793.57;;;26.20
48894;BMP280;34710;35.798;139.446;2022-12-24T02:14:37;98791.20;;;25.88
48894;BMP280;34710;35.798;139.446;2022-12-24T02:17:13;98784.98;;;25.71
48894;BMP280;34710;35.798;139.446;2022-12-24T02:21:45;98774.15;;;26.54
48894;BMP280;34710;35.798;139.446;2022-12-24T02:24:34;98769.34;;;25.19
48894;BMP280;34710;35.798;139.446;2022-12-24T02:27:15;98766.80;;;25.18
48894;BMP280;34710;35.798;139.446;2022-12-24T02:29:59;98773.82;;;24.93
48894;BMP280;34710;35.798;139.446;2022-12-24T02:32:35;98769.30;;;24.63
48894;BMP280;34710;35.798;139.446;2022-12-24T02:35:11;98772.67;;;24.73
48894;BMP280;34710;35.798;139.446;2022-12-24T02:37:46;98762.93;;;24.22
48894;BMP280;34710;35.798;139.446;2022-12-24T02:40:18;98766.42;;;23.53
48894;BMP280;34710;35.798;139.446;2022-12-24T02:42:53;98762.10;;;24.43
48894;BMP280;34710;35.798;139.446;2022-12-24T02:45:28;98765.99;;;24.79
48894;BMP280;34710;35.798;139.446;2022-12-24T02:47:59;98764.37;;;25.19
48894;BMP280;34710;35.798;139.446;2022-12-24T02:50:29;98763.39;;;25.37
48894;BMP280;34710;35.798;139.446;2022-12-24T02:52:58;98760.73;;;25.26
48894;BMP280;34710;35.798;139.446;2022-12-24T02:55:35;98758.09;;;25.82
48894;BMP280;34710;35.798;139.446;2022-12-24T02:58:19;98759.67;;;26.08
48894;BMP280;34710;35.798;139.446;2022-12-24T03:01:01;98760.45;;;26.20
48894;BMP280;34710;35.798;139.446;2022-12-24T03:03:37;98757.15;;;26.51
48894;BMP280;34710;35.798;139.446;2022-12-24T03:06:19;98749.02;;;26.55
48894;BMP280;34710;35.798;139.446;2022-12-24T03:08:56;98746.81;;;26.94
48894;BMP280;34710;35.798;139.446;2022-12-24T03:11:27;98744.23;;;27.18
48894;BMP280;34710;35.798;139.446;2022-12-24T03:13:58;98746.94;;;26.76
48894;BMP280;34710;35.798;139.446;2022-12-24T03:16:28;98743.20;;;25.88
48894;BMP280;34710;35.798;139.446;2022-12-24T03:18:59;98744.92;;;26.60
48894;BMP280;34710;35.798;139.446;2022-12-24T03:21:32;98741.92;;;26.74
48894;BMP280;34710;35.798;139.446;2022-12-24T03:24:02;98732.57;;;27.04
48894;BMP280;34710;35.798;139.446;2022-12-24T03:26:32;98741.51;;;26.67
48894;BMP280;34710;35.798;139.446;2022-12-24T03:29:05;98737.48;;;26.75
48894;BMP280;34710;35.798;139.446;2022-12-24T03:31:44;98739.53;;;25.35
48894;BMP280;34710;35.798;139.446;2022-12-24T03:34:14;98733.20;;;25.46
48894;BMP280;34710;35.798;139.446;2022-12-24T03:36:45;98732.35;;;26.19
48894;BMP280;34710;35.798;139.446;2022-12-24T03:39:15;98736.64;;;25.88
48894;BMP280;34710;35.798;139.446;2022-12-24T03:41:45;98726.28;;;23.65
48894;BMP280;34710;35.798;139.446;2022-12-24T03:44:15;98725.77;;;24.90
48894;BMP280;34710;35.798;139.446;2022-12-24T03:46:44;98740.27;;;25.84
48894;BMP280;34710;35.798;139.446;2022-12-24T03:49:14;98740.34;;;26.53
48894;BMP280;34710;35.798;139.446;2022-12-24T03:51:43;98692.50;;;24.97
48894;BMP280;34710;35.798;139.446;2022-12-24T03:54:13;98714.15;;;24.90
48894;BMP280;34710;35.798;139.446;2022-12-24T03:56:42;98713.12;;;25.39
48894;BMP280;34710;35.798;139.446;2022-12-24T03:59:12;98729.16;;;25.89
48894;BMP280;34710;35.798;139.446;2022-12-24T04:01:41;98710.99;;;22.55
48894;BMP280;34710;35.798;139.446;2022-12-24T04:04:10;98719.19;;;24.19
48894;BMP280;34710;35.798;139.446;2022-12-24T04:06:40;98707.13;;;24.28
48894;BMP280;34710;35.798;139.446;2022-12-24T04:09:09;98723.51;;;25.42
48894;BMP280;34710;35.798;139.446;2022-12-24T04:11:39;98716.70;;;25.91
48894;BMP280;34710;35.798;139.446;2022-12-24T04:14:08;98723.56;;;26.07
48894;BMP280;34710;35.798;139.446;2022-12-24T04:16:38;98720.81;;;25.79
48894;BMP280;34710;35.798;139.446;2022-12-24T04:19:07;98718.10;;;24.12
48894;BMP280;34710;35.798;139.446;2022-12-24T04:21:37;98719.98;;;23.81
48894;BMP280;34710;35.798;139.446;2022-12-24T04:24:07;98723.69;;;22.33
48894;BMP280;34710;35.798;139.446;2022-12-24T04:26:35;98739.01;;;22.03
48894;BMP280;34710;35.798;139.446;2022-12-24T04:29:05;98738.87;;;20.87
48894;BMP280;34710;35.798;139.446;2022-12-24T04:31:34;98738.75;;;18.80
48894;BMP280;34710;35.798;139.446;2022-12-24T04:34:04;98748.11;;;17.24
48894;BMP280;34710;35.798;139.446;2022-12-24T04:36:34;98743.88;;;16.57
48894;BMP280;34710;35.798;139.446;2022-12-24T04:39:03;98762.66;;;16.65
48894;BMP280;34710;35.798;139.446;2022-12-24T04:41:32;98761.65;;;15.89
48894;BMP280;34710;35.798;139.446;2022-12-24T04:44:02;98758.42;;;15.95
48894;BMP280;34710;35.798;139.446;2022-12-24T04:46:31;98770.65;;;15.85
48894;BMP280;34710;35.798;139.446;2022-12-24T04:49:01;98765.76;;;16.39
48894;BMP280;34710;35.798;139.446;2022-12-24T04:51:30;98772.75;;;16.32
48894;BMP280;34710;35.798;139.446;2022-12-24T04:54:00;98763.62;;;15.57
48894;BMP280;34710;35.798;139.446;2022-12-24T04:56:31;98763.76;;;15.32
48894;BMP280;34710;35.798;139.446;2022-12-24T04:59:01;98771.28;;;15.13
48894;BMP280;34710;35.798;139.446;2022-12-24T05:01:32;98774.06;;;15.23
48894;BMP280;34710;35.798;139.446;2022-12-24T05:04:01;98779.33;;;15.42
48894;BMP280;34710;35.798;139.446;2022-12-24T05:06:32;98780.04;;;14.34
48894;BMP280;34710;35.798;139.446;2022-12-24T05:09:01;98778.37;;;14.63
48894;BMP280;34710;35.798;139.446;2022-12-24T05:11:30;98781.57;;;15.17
48894;BMP280;34710;35.798;139.446;2022-12-24T05:14:00;98779.24;;;15.33
48894;BMP280;34710;35.798;139.446;2022-12-24T05:16:29;98786.44;;;15.39
48894;BMP280;34710;35.798;139.446;2022-12-24T05:18:59;98793.51;;;14.59
48894;BMP280;34710;35.798;139.446;2022-12-24T05:21:28;98790.86;;;14.81
48894;BMP280;34710;35.798;139.446;2022-12-24T05:23:58;98793.56;;;14.85
48894;BMP280;34710;35.798;139.446;2022-12-24T05:26:30;98799.94;;;14.50
48894;BMP280;34710;35.798;139.446;2022-12-24T05:29:01;98813.34;;;14.98
48894;BMP280;34710;35.798;139.446;2022-12-24T05:31:32;98807.72;;;14.03
48894;BMP280;34710;35.798;139.446;2022-12-24T05:34:01;98814.59;;;14.52
48894;BMP280;34710;35.798;139.446;2022-12-24T05:36:31;98809.75;;;14.17
48894;BMP280;34710;35.798;139.446;2022-12-24T05:39:01;98820.97;;;15.03
48894;BMP280;34710;35.798;139.446;2022-12-24T05:41:30;98817.53;;;14.53
48894;BMP280;34710;35.798;139.446;2022-12-24T05:44:00;98815.28;;;13.49
48894;BMP280;34710;35.798;139.446;2022-12-24T05:46:30;98819.30;;;14.48
48894;BMP280;34710;35.798;139.446;2022-12-24T05:48:59;98813.82;;;13.92
48894;BMP280;34710;35.798;139.446;2022-12-24T05:51:29;98820.68;;;14.00
48894;BMP280;34710;35.798;139.446;2022-12-24T05:53:58;98821.31;;;14.32
48894;BMP280;34710;35.798;139.446;2022-12-24T05:56:28;98825.55;;;14.37
48894;BMP280;34710;35.798;139.446;2022-12-24T05:58:58;98830.89;;;13.67
48894;BMP280;34710;35.798;139.446;2022-12-24T06:01:27;98832.44;;;14.17
48894;BMP280;34710;35.798;139.446;2022-12-24T06:03:57;98836.75;;;14.38
48894;BMP280;34710;35.798;139.446;2022-12-24T06:06:28;98846.41;;;13.85
48894;BMP280;34710;35.798;139.446;2022-12-24T06:08:57;98853.14;;;13.91
48894;BMP280;34710;35.798;139.446;2022-12-24T06:11:27;98855.16;;;13.26
48894;BMP280;34710;35.798;139.446;2022-12-24T06:13:57;98862.63;;;13.72
48894;BMP280;34710;35.798;139.446;2022-12-24T06:16:26;98863.12;;;14.10
48894;BMP280;34710;35.798;139.446;2022-12-24T06:18:55;98868.20;;;14.16
48894;BMP280;34710;35.798;139.446;2022-12-24T06:21:25;98868.75;;;13.71
48894;BMP280;34710;35.798;139.446;2022-12-24T06:23:54;98879.07;;;13.85
48894;BMP280;34710;35.798;139.446;2022-12-24T06:26:24;98889.01;;;13.42
48894;BMP280;34710;35.798;139.446;2022-12-24T06:28:54;98887.62;;;13.55
48894;BMP280;34710;35.798;139.446;2022-12-24T06:31:24;98894.55;;;12.79
48894;BMP280;34710;35.798;139.446;2022-12-24T06:33:53;98894.90;;;12.92
48894;BMP280;34710;35.798;139.446;2022-12-24T06:36:24;98902.23;;;12.75
48894;BMP280;34710;35.798;139.446;2022-12-24T06:38:54;98906.71;;;12.62
48894;BMP280;34710;35.798;139.446;2022-12-24T06:41:23;98908.10;;;13.09
48894;BMP280;34710;35.798;139.446;2022-12-24T06:43:53;98912.65;;;12.95
48894;BMP280;34710;35.798;139.446;2022-12-24T06:46:22;98917.36;;;12.65
48894;BMP280;34710;35.798;139.446;2022-12-24T06:48:52;98915.68;;;12.36
48894;BMP280;34710;35.798;139.446;2022-12-24T06:51:22;98926.03;;;12.54
48894;BMP280;34710;35.798;139.446;2022-12-24T06:53:51;98924.79;;;12.66
48894;BMP280;34710;35.798;139.446;2022-12-24T06:56:21;98929.65;;;12.55
48894;BMP280;34710;35.798;139.446;2022-12-24T06:58:50;98930.32;;;12.46
48894;BMP280;34710;35.798;139.446;2022-12-24T07:01:20;98931.69;;;11.60
48894;BMP280;34710;35.798;139.446;2022-12-24T07:03:50;98934.08;;;11.46
48894;BMP280;34710;35.798;139.446;2022-12-24T07:06:22;98934.20;;;11.38
48894;BMP280;34710;35.798;139.446;2022-12-24T07:08:53;98932.66;;;11.61
48894;BMP280;34710;35.798;139.446;2022-12-24T07:11:24;98937.58;;;11.49
48894;BMP280;34710;35.798;139.446;2022-12-24T07:13:53;98937.66;;;11.25
48894;BMP280;34710;35.798;139.446;2022-12-24T07:16:22;98944.81;;;11.45
48894;BMP280;34710;35.798;139.446;2022-12-24T07:18:52;98951.49;;;10.80
48894;BMP280;34710;35.798;139.446;2022-12-24T07:21:20;98958.62;;;11.25
48894;BMP280;34710;35.798;139.446;2022-12-24T07:23:50;98961.73;;;11.27
48894;BMP280;34710;35.798;139.446;2022-12-24T07:26:19;98964.69;;;11.26
48894;BMP280;34710;35.798;139.446;2022-12-24T07:28:49;98974.25;;;11.56
48894;BMP280;34710;35.798;139.446;2022-12-24T07:31:19;98980.90;;;10.18
48894;BMP280;34710;35.798;139.446;2022-12-24T07:33:48;98983.16;;;10.96
48894;BMP280;34710;35.798;139.446;2022-12-24T07:36:20;98990.81;;;10.39
48894;BMP280;34710;35.798;139.446;2022-12-24T07:38:49;98995.37;;;10.07
48894;BMP280;34710;35.798;139.446;2022-12-24T07:41:18;98999.18;;;10.33
48894;BMP280;34710;35.798;139.446;2022-12-24T07:43:47;99007.07;;;10.39
48894;BMP280;34710;35.798;139.446;2022-12-24T07:46:16;99011.75;;;10.56
48894;BMP280;34710;35.798;139.446;2022-12-24T07:48:46;99009.07;;;10.62
48894;BMP280;34710;35.798;139.446;2022-12-24T07:51:15;99011.76;;;10.68
48894;BMP280;34710;35.798;139.446;2022-12-24T07:53:44;99017.39;;;10.23
48894;BMP280;34710;35.798;139.446;2022-12-24T07:56:13;99016.36;;;10.61
48894;BMP280;34710;35.798;139.446;2022-12-24T07:58:43;99020.78;;;10.51
48894;BMP280;34710;35.798;139.446;2022-12-24T08:01:12;99029.45;;;9.82
48894;BMP280;34710;35.798;139.446;2022-12-24T08:03:42;99034.18;;;9.79
48894;BMP280;34710;35.798;139.446;2022-12-24T08:06:12;99036.43;;;10.42
48894;BMP280;34710;35.798;139.446;2022-12-24T08:08:42;99039.05;;;9.92
48894;BMP280;34710;35.798;139.446;2022-12-24T08:11:12;99047.04;;;10.04
48894;BMP280;34710;35.798;139.446;2022-12-24T08:13:42;99050.47;;;10.12
48894;BMP280;34710;35.798;139.446;2022-12-24T08:16:11;99056.46;;;9.54
48894;BMP280;34710;35.798;139.446;2022-12-24T08:18:40;99063.62;;;10.65
48894;BMP280;34710;35.798;139.446;2022-12-24T08:21:10;99069.00;;;10.85
48894;BMP280;34710;35.798;139.446;2022-12-24T08:23:38;99076.70;;;11.10
48894;BMP280;34710;35.798;139.446;2022-12-24T08:26:09;99079.02;;;11.02
48894;BMP280;34710;35.798;139.446;2022-12-24T08:28:39;99081.18;;;11.15
48894;BMP280;34710;35.798;139.446;2022-12-24T08:31:08;99079.66;;;11.49
48894;BMP280;34710;35.798;139.446;2022-12-24T08:33:37;99084.21;;;10.95
48894;BMP280;34710;35.798;139.446;2022-12-24T08:36:07;99083.84;;;10.97
48894;BMP280;34710;35.798;139.446;2022-12-24T08:38:36;99083.32;;;10.90
48894;BMP280;34710;35.798;139.446;2022-12-24T08:41:06;99085.34;;;10.80
48894;BMP280;34710;35.798;139.446;2022-12-24T08:43:35;99086.49;;;10.68
48894;BMP280;34710;35.798;139.446;2022-12-24T08:46:05;99086.59;;;10.30
48894;BMP280;34710;35.798;139.446;2022-12-24T08:48:34;99097.91;;;10.37
48894;BMP280;34710;35.798;139.446;2022-12-24T08:51:07;99103.90;;;10.08
48894;BMP280;34710;35.798;139.446;2022-12-24T08:53:37;99105.92;;;10.27
48894;BMP280;34710;35.798;139.446;2022-12-24T08:56:08;99113.06;;;10.46
48894;BMP280;34710;35.798;139.446;2022-12-24T08:58:38;99118.93;;;10.79
48894;BMP280;34710;35.798;139.446;2022-12-24T09:01:13;99122.31;;;10.91
48894;BMP280;34710;35.798;139.446;2022-12-24T09:03:42;99124.97;;;10.42
48894;BMP280;34710;35.798;139.446;2022-12-24T09:06:13;99128.87;;;11.32
48894;BMP280;34710;35.798;139.446;2022-12-24T09:08:43;99130.99;;;10.78
48894;BMP280;34710;35.798;139.446;2022-12-24T09:11:15;99140.92;;;11.15
48894;BMP280;34710;35.798;139.446;2022-12-24T09:13:44;99141.22;;;11.18
48894;BMP280;34710;35.798;139.446;2022-12-24T09:16:14;99143.73;;;11.16
48894;BMP280;34710;35.798;139.446;2022-12-24T09:18:43;99143.86;;;10.47
48894;BMP280;34710;35.798;139.446;2022-12-24T09:21:14;99153.53;;;10.69
48894;BMP280;34710;35.798;139.446;2022-12-24T09:23:45;99156.27;;;10.86
48894;BMP280;34710;35.798;139.446;2022-12-24T09:26:18;99168.57;;;9.62
48894;BMP280;34710;35.798;139.446;2022-12-24T09:28:47;99167.80;;;10.63
48894;BMP280;34710;35.798;139.446;2022-12-24T09:31:17;99167.41;;;9.87
48894;BMP280;34710;35.798;139.446;2022-12-24T09:33:49;99181.36;;;9.62
48894;BMP280;34710;35.798;139.446;2022-12-24T09:36:19;99184.13;;;10.01
48894;BMP280;34710;35.798;139.446;2022-12-24T09:38:49;99189.32;;;10.39
48894;BMP280;34710;35.798;139.446;2022-12-24T09:41:28;99198.07;;;10.11
48894;BMP280;34710;35.798;139.446;2022-12-24T09:44:03;99193.94;;;10.80
48894;BMP280;34710;35.798;139.446;2022-12-24T09:46:36;99199.14;;;11.00
48894;BMP280;34710;35.798;139.446;2022-12-24T09:49:13;99200.54;;;10.44
48894;BMP280;34710;35.798;139.446;2022-12-24T09:51:46;99199.66;;;10.55
48894;BMP280;34710;35.798;139.446;2022-12-24T09:54:21;99201.64;;;10.35
48894;BMP280;34710;35.798;139.446;2022-12-24T09:56:52;99199.99;;;10.53
48894;BMP280;34710;35.798;139.446;2022-12-24T09:59:25;99202.01;;;10.73
48894;BMP280;34710;35.798;139.446;2022-12-24T10:01:59;99200.51;;;10.57
48894;BMP280;34710;35.798;139.446;2022-12-24T10:04:30;99206.84;;;10.64
48894;BMP280;34710;35.798;139.446;2022-12-24T10:07:06;99213.26;;;10.44
48894;BMP280;34710;35.798;139.446;2022-12-24T10:09:47;99219.67;;;10.07
48894;BMP280;34710;35.798;139.446;2022-12-24T10:12:24;99216.92;;;10.47
48894;BMP280;34710;35.798;139.446;2022-12-24T10:15:02;99225.14;;;10.05
48894;BMP280;34710;35.798;139.446;2022-12-24T10:17:43;99231.99;;;10.52
48894;BMP280;34710;35.798;139.446;2022-12-24T10:20:26;99239.03;;;9.48
48894;BMP280;34710;35.798;139.446;2022-12-24T10:23:04;99248.28;;;10.27
48894;BMP280;34710;35.798;139.446;2022-12-24T10:25:40;99245.03;;;10.45
48894;BMP280;34710;35.798;139.446;2022-12-24T10:28:16;99248.85;;;10.03
48894;BMP280;34710;35.798;139.446;2022-12-24T10:30:48;99249.84;;;10.40
48894;BMP280;34710;35.798;139.446;2022-12-24T10:33:27;99257.50;;;10.90
48894;BMP280;34710;35.798;139.446;2022-12-24T10:35:57;99253.24;;;10.56
48894;BMP280;34710;35.798;139.446;2022-12-24T10:38:26;99251.52;;;10.55
48894;BMP280;34710;35.798;139.446;2022-12-24T10:40:59;99248.84;;;11.07
48894;BMP280;34710;35.798;139.446;2022-12-24T10:43:29;99255.13;;;10.92
48894;BMP280;34710;35.798;139.446;2022-12-24T10:46:02;99259.99;;;10.45
48894;BMP280;34710;35.798;139.446;2022-12-24T10:48:37;99255.54;;;10.35
48894;BMP280;34710;35.798;139.446;2022-12-24T10:51:14;99257.43;;;10.44
48894;BMP280;34710;35.798;139.446;2022-12-24T10:53:50;99263.44;;;9.51
48894;BMP280;34710;35.798;139.446;2022-12-24T10:56:20;99271.13;;;9.30
48894;BMP280;34710;35.798;139.446;2022-12-24T10:58:53;99284.86;;;9.38
48894;BMP280;34710;35.798;139.446;2022-12-24T11:01:43;99285.83;;;9.69
48894;BMP280;34710;35.798;139.446;2022-12-24T11:04:17;99289.60;;;10.25
48894;BMP280;34710;35.798;139.446;2022-12-24T11:06:56;99301.24;;;10.59
48894;BMP280;34710;35.798;139.446;2022-12-24T11:09:29;99300.64;;;9.68
48894;BMP280;34710;35.798;139.446;2022-12-24T11:12:01;99292.84;;;10.42
48894;BMP280;34710;35.798;139.446;2022-12-24T11:14:35;99299.36;;;10.71
48894;BMP280;34710;35.798;139.446;2022-12-24T11:17:06;99294.73;;;10.51
48894;BMP280;34710;35.798;139.446;2022-12-24T11:19:37;99307.75;;;10.70
48894;BMP280;34710;35.798;139.446;2022-12-24T11:22:14;99305.09;;;10.06
48894;BMP280;34710;35.798;139.446;2022-12-24T11:24:56;99308.25;;;10.58
48894;BMP280;34710;35.798;139.446;2022-12-24T11:27:33;99316.18;;;9.84
48894;BMP280;34710;35.798;139.446;2022-12-24T11:30:39;99303.97;;;10.68
48894;BMP280;34710;35.798;139.446;2022-12-24T11:33:24;99316.87;;;10.18
48894;BMP280;34710;35.798;139.446;2022-12-24T11:35:56;99311.92;;;10.36
48894;BMP280;34710;35.798;139.446;2022-12-24T11:38:29;99315.20;;;10.03
48894;BMP280;34710;35.798;139.446;2022-12-24T11:41:02;99320.16;;;10.59
48894;BMP280;34710;35.798;139.446;2022-12-24T11:43:40;99329.02;;;10.46
48894;BMP280;34710;35.798;139.446;2022-12-24T11:46:14;99328.76;;;10.48
48894;BMP280;34710;35.798;139.446;2022-12-24T11:48:44;99327.53;;;10.48
48894;BMP280;34710;35.798;139.446;2022-12-24T11:51:23;99330.22;;;10.15
48894;BMP280;34710;35.798;139.446;2022-12-24T11:54:01;99327.51;;;9.97
48894;BMP280;34710;35.798;139.446;2022-12-24T11:56:36;99333.95;;;10.10
48894;BMP280;34710;35.798;139.446;2022-12-24T11:59:14;99325.73;;;10.13
48894;BMP280;34710;35.798;139.446;2022-12-24T12:01:53;99327.09;;;9.89
48894;BMP280;34710;35.798;139.446;2022-12-24T12:04:26;99329.08;;;9.70
48894;BMP280;34710;35.798;139.446;2022-12-24T12:07:01;99334.33;;;9.57
48894;BMP280;34710;35.798;139.446;2022-12-24T12:09:36;99340.21;;;9.58
48894;BMP280;34710;35.798;139.446;2022-12-24T12:12:08;99337.07;;;9.52
48894;BMP280;34710;35.798;139.446;2022-12-24T12:14:45;99343.31;;;9.53
48894;BMP280;34710;35.798;139.446;2022-12-24T12:17:25;99344.52;;;9.55
48894;BMP280;34710;35.798;139.446;2022-12-24T12:20:02;99343.26;;;9.72
48894;BMP280;34710;35.798;139.446;2022-12-24T12:22:38;99355.45;;;9.62
48894;BMP280;34710;35.798;139.446;2022-12-24T12:25:20;99363.57;;;9.42
48894;BMP280;34710;35.798;139.446;2022-12-24T12:27:52;99373.28;;;9.23
48894;BMP280;34710;35.798;139.446;2022-12-24T12:30:23;99374.56;;;8.77
48894;BMP280;34710;35.798;139.446;2022-12-24T12:32:58;99378.80;;;8.93
48894;BMP280;34710;35.798;139.446;2022-12-24T12:35:30;99382.26;;;9.01
48894;BMP280;34710;35.798;139.446;2022-12-24T12:38:04;99376.61;;;8.96
48894;BMP280;34710;35.798;139.446;2022-12-24T12:40:48;99375.94;;;8.88
48894;BMP280;34710;35.798;139.446;2022-12-24T12:43:28;99385.61;;;8.24
48894;BMP280;34710;35.798;139.446;2022-12-24T12:46:07;99386.78;;;8.39
48894;BMP280;34710;35.798;139.446;2022-12-24T12:48:53;99382.93;;;8.12
48894;BMP280;34710;35.798;139.446;2022-12-24T12:51:30;99388.58;;;8.24
48894;BMP280;34710;35.798;139.446;2022-12-24T12:54:31;99375.68;;;8.28
48894;BMP280;34710;35.798;139.446;2022-12-24T12:57:07;99378.72;;;8.15
48894;BMP280;34710;35.798;139.446;2022-12-24T12:59:39;99379.04;;;8.22
48894;BMP280;34710;35.798;139.446;2022-12-24T13:02:27;99378.89;;;8.25
48894;BMP280;34710;35.798;139.446;2022-12-24T13:07:13;99400.79;;;8.55
48894;BMP280;34710;35.798;139.446;2022-12-24T13:10:02;99406.62;;;7.47
48894;BMP280;34710;35.798;139.446;2022-12-24T13:12:47;99400.33;;;7.31
48894;BMP280;34710;35.798;139.446;2022-12-24T13:15:40;99395.69;;;7.46
48894;BMP280;34710;35.798;139.446;2022-12-24T13:18:31;99398.81;;;7.44
48894;BMP280;34710;35.798;139.446;2022-12-24T13:21:16;99396.21;;;7.76
48894;BMP280;34710;35.798;139.446;2022-12-24T13:23:46;99402.52;;;7.81
48894;BMP280;34710;35.798;139.446;2022-12-24T13:26:16;99401.73;;;7.65
48894;BMP280;34710;35.798;139.446;2022-12-24T13:28:45;99400.64;;;8.09
48894;BMP280;34710;35.798;139.446;2022-12-24T13:31:30;99402.86;;;8.08
48894;BMP280;34710;35.798;139.446;2022-12-24T13:34:01;99406.30;;;7.84
48894;BMP280;34710;35.798;139.446;2022-12-24T13:37:15;99405.32;;;8.73
48894;BMP280;34710;35.798;139.446;2022-12-24T13:40:14;99409.98;;;7.84
48894;BMP280;34710;35.798;139.446;2022-12-24T13:42:50;99422.80;;;7.30
48894;BMP280;34710;35.798;139.446;2022-12-24T13:45:52;99418.66;;;7.58
48894;BMP280;34710;35.798;139.446;2022-12-24T13:48:31;99415.43;;;7.46
48894;BMP280;34710;35.798;139.446;2022-12-24T13:51:18;99421.80;;;7.38
48894;BMP280;34710;35.798;139.446;2022-12-24T13:53:48;99424.86;;;7.45
48894;BMP280;34710;35.798;139.446;2022-12-24T13:56:26;99428.44;;;7.23
48894;BMP280;34710;35.798;139.446;2022-12-24T13:59:18;99418.90;;;7.04
48894;BMP280;34710;35.798;139.446;2022-12-24T14:01:52;99410.88;;;6.79
48894;BMP280;34710;35.798;139.446;2022-12-24T14:04:26;99409.47;;;6.56
48894;BMP280;34710;35.798;139.446;2022-12-24T14:06:59;99406.36;;;6.73
48894;BMP280;34710;35.798;139.446;2022-12-24T14:09:31;99400.87;;;6.69
48894;BMP280;34710;35.798;139.446;2022-12-24T14:12:32;99397.76;;;6.56
48894;BMP280;34710;35.798;139.446;2022-12-24T14:15:54;99394.50;;;6.80
48894;BMP280;34710;35.798;139.446;2022-12-24T14:18:30;99393.33;;;6.52
48894;BMP280;34710;35.798;139.446;2022-12-24T14:21:00;99401.19;;;6.88
48894;BMP280;34710;35.798;139.446;2022-12-24T14:23:44;99408.52;;;6.81